sensor_id;sensor_type;location;lat;lon;timestamp;P1;durP1;ratioP1;P2;durP2;ratioP2
66371;SDS011;53168;51.146;17.120;2023-11-21T00:00:10;5.04;;;4.98;;
66371;SDS011;53168;51.146;17.120;2023-11-21T00:03:09;4.60;;;4.52;;
66371;SDS011;53168;51.146;17.120;2023-11-21T00:05:45;4.28;;;4.23;;
66371;SDS011;53168;51.146;17.120;2023-11-21T00:08:21;4.27;;;4.23;;
66371;SDS011;53168;51.146;17.120;2023-11-21T00:10:54;4.03;;;3.99;;
66371;SDS011;53168;51.146;17.120;2023-11-21T00:13:29;3.89;;;3.82;;
66371;SDS011;53168;51.146;17.120;2023-11-21T00:16:06;4.13;;;4.03;;
66371;SDS011;53168;51.146;17.120;2023-11-21T00:56:50;3.73;;;3.53;;
66371;SDS011;53168;51.146;17.120;2023-11-21T00:59:35;3.80;;;3.74;;
66371;SDS011;53168;51.146;17.120;2023-11-21T01:02:10;3.77;;;3.73;;
66371;SDS011;53168;51.146;17.120;2023-11-21T01:04:45;3.48;;;3.42;;
66371;SDS011;53168;51.146;17.120;2023-11-21T01:07:19;3.46;;;3.40;;
66371;SDS011;53168;51.146;17.120;2023-11-21T01:09:53;3.23;;;3.17;;
66371;SDS011;53168;51.146;17.120;2023-11-21T01:12:29;3.85;;;3.78;;
66371;SDS011;53168;51.146;17.120;2023-11-21T01:15:06;3.94;;;3.88;;
66371;SDS011;53168;51.146;17.120;2023-11-21T01:17:42;3.78;;;3.71;;
66371;SDS011;53168;51.146;17.120;2023-11-21T01:20:30;3.68;;;3.63;;
66371;SDS011;53168;51.146;17.120;2023-11-21T01:23:05;3.58;;;3.51;;
66371;SDS011;53168;51.146;17.120;2023-11-21T01:25:40;3.31;;;3.26;;
66371;SDS011;53168;51.146;17.120;2023-11-21T01:28:15;4.01;;;3.97;;
66371;SDS011;53168;51.146;17.120;2023-11-21T01:30:50;4.02;;;3.99;;
66371;SDS011;53168;51.146;17.120;2023-11-21T01:33:26;3.82;;;3.79;;
66371;SDS011;53168;51.146;17.120;2023-11-21T01:36:01;4.50;;;4.43;;
66371;SDS011;53168;51.146;17.120;2023-11-21T01:38:38;4.73;;;4.63;;
66371;SDS011;53168;51.146;17.120;2023-11-21T01:41:16;5.53;;;5.31;;
66371;SDS011;53168;51.146;17.120;2023-11-21T01:43:58;4.05;;;3.95;;
66371;SDS011;53168;51.146;17.120;2023-11-21T01:46:41;4.31;;;4.19;;
66371;SDS011;53168;51.146;17.120;2023-11-21T01:49:17;3.87;;;3.69;;
66371;SDS011;53168;51.146;17.120;2023-11-21T01:51:54;3.87;;;3.73;;
66371;SDS011;53168;51.146;17.120;2023-11-21T01:54:31;3.70;;;3.59;;
66371;SDS011;53168;51.146;17.120;2023-11-21T01:57:15;4.48;;;4.31;;
66371;SDS011;53168;51.146;17.120;2023-11-21T01:59:51;4.52;;;4.36;;
66371;SDS011;53168;51.146;17.120;2023-11-21T02:02:29;3.71;;;3.67;;
66371;SDS011;53168;51.146;17.120;2023-11-21T02:05:04;3.64;;;3.59;;
66371;SDS011;53168;51.146;17.120;2023-11-21T02:07:39;3.31;;;3.27;;
66371;SDS011;53168;51.146;17.120;2023-11-21T02:10:18;3.96;;;3.86;;
66371;SDS011;53168;51.146;17.120;2023-11-21T02:12:56;3.82;;;3.67;;
66371;SDS011;53168;51.146;17.120;2023-11-21T02:15:35;3.93;;;3.82;;
66371;SDS011;53168;51.146;17.120;2023-11-21T02:18:11;3.56;;;3.45;;
66371;SDS011;53168;51.146;17.120;2023-11-21T02:20:47;3.69;;;3.59;;
66371;SDS011;53168;51.146;17.120;2023-11-21T02:23:21;3.78;;;3.69;;
66371;SDS011;53168;51.146;17.120;2023-11-21T02:25:58;3.35;;;3.25;;
66371;SDS011;53168;51.146;17.120;2023-11-21T02:28:33;3.45;;;3.35;;
66371;SDS011;53168;51.146;17.120;2023-11-21T02:31:08;3.87;;;3.80;;
66371;SDS011;53168;51.146;17.120;2023-11-21T02:33:43;3.51;;;3.46;;
66371;SDS011;53168;51.146;17.120;2023-11-21T02:36:19;3.38;;;3.33;;
66371;SDS011;53168;51.146;17.120;2023-11-21T02:38:54;3.40;;;3.34;;
66371;SDS011;53168;51.146;17.120;2023-11-21T02:41:30;3.40;;;3.33;;
66371;SDS011;53168;51.146;17.120;2023-11-21T02:44:10;3.56;;;3.48;;
66371;SDS011;53168;51.146;17.120;2023-11-21T02:47:42;3.44;;;3.37;;
66371;SDS011;53168;51.146;17.120;2023-11-21T02:50:16;2.93;;;2.83;;
66371;SDS011;53168;51.146;17.120;2023-11-21T02:52:53;3.52;;;3.40;;
66371;SDS011;53168;51.146;17.120;2023-11-21T02:55:29;3.53;;;3.41;;
66371;SDS011;53168;51.146;17.120;2023-11-21T02:58:05;3.42;;;3.35;;
66371;SDS011;53168;51.146;17.120;2023-11-21T03:00:38;3.71;;;3.60;;
66371;SDS011;53168;51.146;17.120;2023-11-21T03:03:13;3.68;;;3.60;;
66371;SDS011;53168;51.146;17.120;2023-11-21T03:05:56;3.97;;;3.92;;
66371;SDS011;53168;51.146;17.120;2023-11-21T03:37:34;7.18;;;6.31;;
66371;SDS011;53168;51.146;17.120;2023-11-21T03:40:11;6.74;;;6.39;;
66371;SDS011;53168;51.146;17.120;2023-11-21T03:42:45;5.96;;;5.79;;
66371;SDS011;53168;51.146;17.120;2023-11-21T03:45:22;5.78;;;5.57;;
66371;SDS011;53168;51.146;17.120;2023-11-21T03:47:56;6.16;;;5.94;;
66371;SDS011;53168;51.146;17.120;2023-11-21T03:50:31;6.43;;;6.23;;
66371;SDS011;53168;51.146;17.120;2023-11-21T03:53:04;6.49;;;6.36;;
66371;SDS011;53168;51.146;17.120;2023-11-21T03:55:38;6.29;;;6.15;;
66371;SDS011;53168;51.146;17.120;2023-11-21T03:58:13;5.62;;;5.54;;
66371;SDS011;53168;51.146;17.120;2023-11-21T04:00:47;6.16;;;6.07;;
66371;SDS011;53168;51.146;17.120;2023-11-21T04:03:22;5.56;;;5.48;;
66371;SDS011;53168;51.146;17.120;2023-11-21T04:05:57;6.02;;;5.89;;
66371;SDS011;53168;51.146;17.120;2023-11-21T04:08:32;6.66;;;6.50;;
66371;SDS011;53168;51.146;17.120;2023-11-21T04:11:06;5.74;;;5.69;;
66371;SDS011;53168;51.146;17.120;2023-11-21T04:13:41;5.55;;;5.47;;
66371;SDS011;53168;51.146;17.120;2023-11-21T04:16:16;5.45;;;5.36;;
66371;SDS011;53168;51.146;17.120;2023-11-21T04:18:51;6.20;;;6.08;;
66371;SDS011;53168;51.146;17.120;2023-11-21T04:21:26;6.08;;;5.99;;
66371;SDS011;53168;51.146;17.120;2023-11-21T04:24:01;6.21;;;6.17;;
66371;SDS011;53168;51.146;17.120;2023-11-21T04:26:36;6.26;;;6.22;;
66371;SDS011;53168;51.146;17.120;2023-11-21T04:29:10;5.62;;;5.59;;
66371;SDS011;53168;51.146;17.120;2023-11-21T04:31:44;6.05;;;6.00;;
66371;SDS011;53168;51.146;17.120;2023-11-21T04:34:19;6.09;;;6.02;;
66371;SDS011;53168;51.146;17.120;2023-11-21T04:36:58;6.34;;;6.23;;
66371;SDS011;53168;51.146;17.120;2023-11-21T04:39:36;9.62;;;9.62;;
66371;SDS011;53168;51.146;17.120;2023-11-21T04:42:11;9.45;;;9.45;;
66371;SDS011;53168;51.146;17.120;2023-11-21T04:44:45;11.91;;;11.81;;
66371;SDS011;53168;51.146;17.120;2023-11-21T04:47:19;9.21;;;9.06;;
66371;SDS011;53168;51.146;17.120;2023-11-21T04:49:53;8.79;;;8.63;;
66371;SDS011;53168;51.146;17.120;2023-11-21T04:52:27;8.78;;;8.60;;
66371;SDS011;53168;51.146;17.120;2023-11-21T04:55:02;7.24;;;7.15;;
66371;SDS011;53168;51.146;17.120;2023-11-21T04:57:40;6.67;;;6.63;;
66371;SDS011;53168;51.146;17.120;2023-11-21T05:00:15;6.88;;;6.79;;
66371;SDS011;53168;51.146;17.120;2023-11-21T05:02:51;4.99;;;4.89;;
66371;SDS011;53168;51.146;17.120;2023-11-21T05:05:28;4.47;;;4.38;;
66371;SDS011;53168;51.146;17.120;2023-11-21T05:08:08;4.05;;;4.01;;
66371;SDS011;53168;51.146;17.120;2023-11-21T05:10:46;3.52;;;3.48;;
66371;SDS011;53168;51.146;17.120;2023-11-21T05:13:21;3.60;;;3.53;;
66371;SDS011;53168;51.146;17.120;2023-11-21T05:16:38;3.91;;;3.86;;
66371;SDS011;53168;51.146;17.120;2023-11-21T05:19:12;4.03;;;3.99;;
66371;SDS011;53168;51.146;17.120;2023-11-21T05:21:45;3.95;;;3.89;;
66371;SDS011;53168;51.146;17.120;2023-11-21T05:24:19;4.61;;;4.57;;
66371;SDS011;53168;51.146;17.120;2023-11-21T05:26:53;5.30;;;5.25;;
66371;SDS011;53168;51.146;17.120;2023-11-21T05:29:27;5.72;;;5.68;;
66371;SDS011;53168;51.146;17.120;2023-11-21T05:32:07;5.60;;;5.57;;
66371;SDS011;53168;51.146;17.120;2023-11-21T05:34:49;5.98;;;5.96;;
66371;SDS011;53168;51.146;17.120;2023-11-21T05:37:29;5.34;;;5.32;;
66371;SDS011;53168;51.146;17.120;2023-11-21T05:40:06;6.16;;;6.13;;
66371;SDS011;53168;51.146;17.120;2023-11-21T05:42:46;7.73;;;7.69;;
66371;SDS011;53168;51.146;17.120;2023-11-21T05:45:48;5.89;;;5.85;;
66371;SDS011;53168;51.146;17.120;2023-11-21T05:48:22;5.69;;;5.65;;
66371;SDS011;53168;51.146;17.120;2023-11-21T05:50:56;5.60;;;5.56;;
66371;SDS011;53168;51.146;17.120;2023-11-21T05:53:31;5.88;;;5.83;;
66371;SDS011;53168;51.146;17.120;2023-11-21T05:56:06;5.66;;;5.61;;
66371;SDS011;53168;51.146;17.120;2023-11-21T06:01:40;6.39;;;6.38;;
66371;SDS011;53168;51.146;17.120;2023-11-21T06:04:19;5.82;;;5.81;;
66371;SDS011;53168;51.146;17.120;2023-11-21T06:06:54;6.11;;;6.11;;
66371;SDS011;53168;51.146;17.120;2023-11-21T06:09:28;6.12;;;6.03;;
66371;SDS011;53168;51.146;17.120;2023-11-21T06:12:13;6.00;;;5.96;;
66371;SDS011;53168;51.146;17.120;2023-11-21T06:14:47;6.29;;;6.28;;
66371;SDS011;53168;51.146;17.120;2023-11-21T06:17:21;6.05;;;6.02;;
66371;SDS011;53168;51.146;17.120;2023-11-21T06:19:57;5.61;;;5.53;;
66371;SDS011;53168;51.146;17.120;2023-11-21T06:22:34;7.08;;;7.05;;
66371;SDS011;53168;51.146;17.120;2023-11-21T06:25:10;6.18;;;6.15;;
66371;SDS011;53168;51.146;17.120;2023-11-21T06:27:47;6.68;;;6.66;;
66371;SDS011;53168;51.146;17.120;2023-11-21T06:30:24;6.55;;;6.52;;
66371;SDS011;53168;51.146;17.120;2023-11-21T06:32:58;6.75;;;6.69;;
66371;SDS011;53168;51.146;17.120;2023-11-21T06:35:33;6.81;;;6.75;;
66371;SDS011;53168;51.146;17.120;2023-11-21T06:38:12;7.04;;;6.99;;
66371;SDS011;53168;51.146;17.120;2023-11-21T06:40:47;7.38;;;7.36;;
66371;SDS011;53168;51.146;17.120;2023-11-21T06:43:22;8.20;;;8.11;;
66371;SDS011;53168;51.146;17.120;2023-11-21T06:45:57;6.93;;;6.90;;
66371;SDS011;53168;51.146;17.120;2023-11-21T06:48:34;6.78;;;6.73;;
66371;SDS011;53168;51.146;17.120;2023-11-21T06:51:22;7.89;;;7.86;;
66371;SDS011;53168;51.146;17.120;2023-11-21T06:53:58;7.04;;;6.99;;
66371;SDS011;53168;51.146;17.120;2023-11-21T06:56:52;6.62;;;6.59;;
66371;SDS011;53168;51.146;17.120;2023-11-21T06:59:37;7.92;;;7.92;;
66371;SDS011;53168;51.146;17.120;2023-11-21T07:02:11;7.44;;;7.44;;
66371;SDS011;53168;51.146;17.120;2023-11-21T07:04:48;7.56;;;7.47;;
66371;SDS011;53168;51.146;17.120;2023-11-21T07:07:22;7.56;;;7.50;;
66371;SDS011;53168;51.146;17.120;2023-11-21T07:09:58;7.41;;;7.31;;
66371;SDS011;53168;51.146;17.120;2023-11-21T07:12:33;7.44;;;7.36;;
66371;SDS011;53168;51.146;17.120;2023-11-21T07:20:05;6.34;;;6.27;;
66371;SDS011;53168;51.146;17.120;2023-11-21T07:22:43;8.05;;;8.03;;
66371;SDS011;53168;51.146;17.120;2023-11-21T07:25:20;7.24;;;7.22;;
66371;SDS011;53168;51.146;17.120;2023-11-21T07:27:54;6.69;;;6.68;;
66371;SDS011;53168;51.146;17.120;2023-11-21T07:30:30;6.83;;;6.82;;
66371;SDS011;53168;51.146;17.120;2023-11-21T07:33:16;6.61;;;6.58;;
66371;SDS011;53168;51.146;17.120;2023-11-21T07:35:55;7.58;;;7.55;;
66371;SDS011;53168;51.146;17.120;2023-11-21T07:49:37;7.16;;;7.13;;
66371;SDS011;53168;51.146;17.120;2023-11-21T07:55:38;6.83;;;6.82;;
66371;SDS011;53168;51.146;17.120;2023-11-21T07:59:20;6.74;;;6.68;;
66371;SDS011;53168;51.146;17.120;2023-11-21T08:01:59;7.44;;;7.41;;
66371;SDS011;53168;51.146;17.120;2023-11-21T08:04:34;6.75;;;6.67;;
66371;SDS011;53168;51.146;17.120;2023-11-21T08:07:10;6.88;;;6.79;;
66371;SDS011;53168;51.146;17.120;2023-11-21T08:10:13;6.68;;;6.63;;
66371;SDS011;53168;51.146;17.120;2023-11-21T08:29:47;7.12;;;7.01;;
66371;SDS011;53168;51.146;17.120;2023-11-21T08:32:33;7.09;;;7.03;;
66371;SDS011;53168;51.146;17.120;2023-11-21T08:35:08;6.89;;;6.83;;
66371;SDS011;53168;51.146;17.120;2023-11-21T08:37:58;7.13;;;6.99;;
66371;SDS011;53168;51.146;17.120;2023-11-21T08:40:41;6.36;;;6.30;;
66371;SDS011;53168;51.146;17.120;2023-11-21T08:43:17;6.63;;;6.58;;
66371;SDS011;53168;51.146;17.120;2023-11-21T08:46:08;5.81;;;5.77;;
66371;SDS011;53168;51.146;17.120;2023-11-21T08:49:27;6.49;;;6.43;;
66371;SDS011;53168;51.146;17.120;2023-11-21T08:52:22;6.36;;;6.33;;
66371;SDS011;53168;51.146;17.120;2023-11-21T08:55:17;6.74;;;6.69;;
66371;SDS011;53168;51.146;17.120;2023-11-21T08:58:16;6.00;;;5.96;;
66371;SDS011;53168;51.146;17.120;2023-11-21T09:01:18;7.12;;;7.08;;
66371;SDS011;53168;51.146;17.120;2023-11-21T09:14:58;7.78;;;7.72;;
66371;SDS011;53168;51.146;17.120;2023-11-21T09:17:34;6.90;;;6.81;;
66371;SDS011;53168;51.146;17.120;2023-11-21T09:20:10;7.19;;;7.03;;
66371;SDS011;53168;51.146;17.120;2023-11-21T09:22:46;8.59;;;8.45;;
66371;SDS011;53168;51.146;17.120;2023-11-21T09:25:20;7.92;;;7.83;;
66371;SDS011;53168;51.146;17.120;2023-11-21T09:27:54;7.34;;;7.24;;
66371;SDS011;53168;51.146;17.120;2023-11-21T09:33:41;6.17;;;6.11;;
66371;SDS011;53168;51.146;17.120;2023-11-21T09:36:19;7.37;;;7.31;;
66371;SDS011;53168;51.146;17.120;2023-11-21T09:39:00;6.75;;;6.72;;
66371;SDS011;53168;51.146;17.120;2023-11-21T09:46:20;5.25;;;5.25;;
66371;SDS011;53168;51.146;17.120;2023-11-21T09:49:01;5.63;;;5.63;;
66371;SDS011;53168;51.146;17.120;2023-11-21T09:51:45;5.38;;;5.38;;
66371;SDS011;53168;51.146;17.120;2023-11-21T09:54:34;6.18;;;6.16;;
66371;SDS011;53168;51.146;17.120;2023-11-21T09:57:20;6.42;;;6.40;;
66371;SDS011;53168;51.146;17.120;2023-11-21T10:03:06;7.06;;;6.92;;
66371;SDS011;53168;51.146;17.120;2023-11-21T10:06:34;7.31;;;7.22;;
66371;SDS011;53168;51.146;17.120;2023-11-21T10:09:36;6.90;;;6.89;;
66371;SDS011;53168;51.146;17.120;2023-11-21T10:12:35;7.83;;;7.77;;
66371;SDS011;53168;51.146;17.120;2023-11-21T10:15:25;14.88;;;14.41;;
66371;SDS011;53168;51.146;17.120;2023-11-21T10:18:07;15.40;;;14.81;;
66371;SDS011;53168;51.146;17.120;2023-11-21T10:20:41;16.54;;;16.04;;
66371;SDS011;53168;51.146;17.120;2023-11-21T10:23:27;18.29;;;17.48;;
66371;SDS011;53168;51.146;17.120;2023-11-21T10:26:12;18.63;;;17.55;;
66371;SDS011;53168;51.146;17.120;2023-11-21T10:29:01;19.02;;;18.06;;
66371;SDS011;53168;51.146;17.120;2023-11-21T10:32:03;18.30;;;17.14;;
66371;SDS011;53168;51.146;17.120;2023-11-21T10:34:37;18.31;;;17.37;;
66371;SDS011;53168;51.146;17.120;2023-11-21T10:37:12;18.38;;;17.37;;
66371;SDS011;53168;51.146;17.120;2023-11-21T10:39:49;18.07;;;17.24;;
66371;SDS011;53168;51.146;17.120;2023-11-21T10:42:28;18.91;;;17.43;;
66371;SDS011;53168;51.146;17.120;2023-11-21T10:45:05;20.74;;;19.34;;
66371;SDS011;53168;51.146;17.120;2023-11-21T10:47:43;23.55;;;22.03;;
66371;SDS011;53168;51.146;17.120;2023-11-21T10:50:19;24.98;;;23.90;;
66371;SDS011;53168;51.146;17.120;2023-11-21T10:52:58;30.94;;;28.95;;
66371;SDS011;53168;51.146;17.120;2023-11-21T10:55:35;24.33;;;23.26;;
66371;SDS011;53168;51.146;17.120;2023-11-21T10:58:17;22.16;;;21.11;;
66371;SDS011;53168;51.146;17.120;2023-11-21T11:00:53;22.55;;;21.40;;
66371;SDS011;53168;51.146;17.120;2023-11-21T11:03:29;23.24;;;21.43;;
66371;SDS011;53168;51.146;17.120;2023-11-21T11:06:19;22.05;;;20.92;;
66371;SDS011;53168;51.146;17.120;2023-11-21T11:09:02;21.80;;;20.80;;
66371;SDS011;53168;51.146;17.120;2023-11-21T11:11:43;20.86;;;20.10;;
66371;SDS011;53168;51.146;17.120;2023-11-21T11:14:18;21.54;;;20.63;;
66371;SDS011;53168;51.146;17.120;2023-11-21T11:16:55;23.01;;;21.88;;
66371;SDS011;53168;51.146;17.120;2023-11-21T11:19:38;21.48;;;20.51;;
66371;SDS011;53168;51.146;17.120;2023-11-21T11:22:18;21.49;;;20.45;;
66371;SDS011;53168;51.146;17.120;2023-11-21T11:25:21;20.92;;;19.92;;
66371;SDS011;53168;51.146;17.120;2023-11-21T11:28:41;22.34;;;21.13;;
66371;SDS011;53168;51.146;17.120;2023-11-21T11:31:39;23.13;;;21.46;;
66371;SDS011;53168;51.146;17.120;2023-11-21T11:34:35;21.77;;;20.10;;
66371;SDS011;53168;51.146;17.120;2023-11-21T11:37:34;20.87;;;19.57;;
66371;SDS011;53168;51.146;17.120;2023-11-21T11:40:10;21.91;;;20.85;;
66371;SDS011;53168;51.146;17.120;2023-11-21T11:42:57;22.33;;;20.62;;
66371;SDS011;53168;51.146;17.120;2023-11-21T11:49:08;19.95;;;18.75;;
66371;SDS011;53168;51.146;17.120;2023-11-21T11:55:49;21.71;;;20.27;;
66371;SDS011;53168;51.146;17.120;2023-11-21T11:59:02;21.24;;;19.84;;
66371;SDS011;53168;51.146;17.120;2023-11-21T12:01:40;19.68;;;18.71;;
66371;SDS011;53168;51.146;17.120;2023-11-21T12:04:24;18.57;;;17.32;;
66371;SDS011;53168;51.146;17.120;2023-11-21T12:07:15;17.22;;;16.48;;
66371;SDS011;53168;51.146;17.120;2023-11-21T12:13:15;18.69;;;17.99;;
66371;SDS011;53168;51.146;17.120;2023-11-21T12:16:02;19.80;;;18.88;;
66371;SDS011;53168;51.146;17.120;2023-11-21T12:18:39;18.69;;;17.81;;
66371;SDS011;53168;51.146;17.120;2023-11-21T12:24:58;18.35;;;17.82;;
66371;SDS011;53168;51.146;17.120;2023-11-21T12:34:38;17.08;;;16.51;;
66371;SDS011;53168;51.146;17.120;2023-11-21T12:38:12;16.76;;;16.43;;
66371;SDS011;53168;51.146;17.120;2023-11-21T12:43:22;17.16;;;16.14;;
66371;SDS011;53168;51.146;17.120;2023-11-21T12:46:05;16.29;;;15.95;;
66371;SDS011;53168;51.146;17.120;2023-11-21T12:51:58;14.16;;;14.01;;
66371;SDS011;53168;51.146;17.120;2023-11-21T12:54:40;14.38;;;14.13;;
66371;SDS011;53168;51.146;17.120;2023-11-21T12:57:20;13.72;;;13.53;;
66371;SDS011;53168;51.146;17.120;2023-11-21T13:03:59;13.81;;;13.65;;
66371;SDS011;53168;51.146;17.120;2023-11-21T13:06:48;14.02;;;13.69;;
66371;SDS011;53168;51.146;17.120;2023-11-21T13:09:53;14.61;;;14.33;;
66371;SDS011;53168;51.146;17.120;2023-11-21T13:12:24;14.34;;;14.16;;
66371;SDS011;53168;51.146;17.120;2023-11-21T13:14:55;15.11;;;14.91;;
66371;SDS011;53168;51.146;17.120;2023-11-21T13:17:37;16.89;;;16.64;;
66371;SDS011;53168;51.146;17.120;2023-11-21T13:20:08;17.43;;;17.02;;
66371;SDS011;53168;51.146;17.120;2023-11-21T13:22:47;15.95;;;15.73;;
66371;SDS011;53168;51.146;17.120;2023-11-21T13:25:22;15.08;;;14.77;;
66371;SDS011;53168;51.146;17.120;2023-11-21T13:27:59;15.50;;;15.14;;
66371;SDS011;53168;51.146;17.120;2023-11-21T13:30:32;15.91;;;15.67;;
66371;SDS011;53168;51.146;17.120;2023-11-21T13:33:06;15.21;;;14.70;;
66371;SDS011;53168;51.146;17.120;2023-11-21T13:35:45;15.39;;;14.95;;
66371;SDS011;53168;51.146;17.120;2023-11-21T13:39:15;15.35;;;15.10;;
66371;SDS011;53168;51.146;17.120;2023-11-21T13:41:47;15.24;;;14.96;;
66371;SDS011;53168;51.146;17.120;2023-11-21T13:47:58;14.61;;;14.11;;
66371;SDS011;53168;51.146;17.120;2023-11-21T13:50:30;14.23;;;14.01;;
66371;SDS011;53168;51.146;17.120;2023-11-21T13:53:03;13.79;;;13.68;;
66371;SDS011;53168;51.146;17.120;2023-11-21T13:55:51;13.84;;;13.81;;
66371;SDS011;53168;51.146;17.120;2023-11-21T13:58:24;13.38;;;13.34;;
66371;SDS011;53168;51.146;17.120;2023-11-21T14:01:07;13.72;;;13.60;;
66371;SDS011;53168;51.146;17.120;2023-11-21T14:03:52;12.44;;;12.30;;
66371;SDS011;53168;51.146;17.120;2023-11-21T14:06:28;13.26;;;13.09;;
66371;SDS011;53168;51.146;17.120;2023-11-21T14:09:04;13.63;;;13.39;;
66371;SDS011;53168;51.146;17.120;2023-11-21T14:11:35;14.66;;;14.51;;
66371;SDS011;53168;51.146;17.120;2023-11-21T14:14:14;15.02;;;14.91;;
66371;SDS011;53168;51.146;17.120;2023-11-21T14:16:45;14.57;;;14.45;;
66371;SDS011;53168;51.146;17.120;2023-11-21T14:19:17;15.82;;;15.50;;
66371;SDS011;53168;51.146;17.120;2023-11-21T14:21:48;16.86;;;16.35;;
66371;SDS011;53168;51.146;17.120;2023-11-21T14:24:18;16.79;;;16.55;;
66371;SDS011;53168;51.146;17.120;2023-11-21T14:26:49;17.22;;;16.95;;
66371;SDS011;53168;51.146;17.120;2023-11-21T14:29:20;17.39;;;17.07;;
66371;SDS011;53168;51.146;17.120;2023-11-21T14:31:51;19.01;;;18.65;;
66371;SDS011;53168;51.146;17.120;2023-11-21T14:34:24;19.16;;;18.67;;
66371;SDS011;53168;51.146;17.120;2023-11-21T14:36:55;16.68;;;16.22;;
66371;SDS011;53168;51.146;17.120;2023-11-21T14:39:28;15.25;;;15.02;;
66371;SDS011;53168;51.146;17.120;2023-11-21T14:42:13;14.07;;;13.88;;
66371;SDS011;53168;51.146;17.120;2023-11-21T14:45:29;14.12;;;13.99;;
66371;SDS011;53168;51.146;17.120;2023-11-21T14:48:09;12.70;;;12.66;;
66371;SDS011;53168;51.146;17.120;2023-11-21T14:51:21;14.07;;;13.96;;
66371;SDS011;53168;51.146;17.120;2023-11-21T14:56:55;13.08;;;13.04;;
66371;SDS011;53168;51.146;17.120;2023-11-21T14:59:26;13.59;;;13.35;;
66371;SDS011;53168;51.146;17.120;2023-11-21T15:01:56;14.49;;;14.07;;
66371;SDS011;53168;51.146;17.120;2023-11-21T15:04:52;15.67;;;15.23;;
66371;SDS011;53168;51.146;17.120;2023-11-21T15:07:29;16.74;;;16.21;;
66371;SDS011;53168;51.146;17.120;2023-11-21T15:10:00;14.82;;;14.57;;
66371;SDS011;53168;51.146;17.120;2023-11-21T15:12:42;15.02;;;14.60;;
66371;SDS011;53168;51.146;17.120;2023-11-21T15:15:15;15.67;;;15.27;;
66371;SDS011;53168;51.146;17.120;2023-11-21T15:17:46;16.48;;;16.09;;
66371;SDS011;53168;51.146;17.120;2023-11-21T15:20:17;17.90;;;17.34;;
66371;SDS011;53168;51.146;17.120;2023-11-21T15:22:52;18.66;;;18.06;;
66371;SDS011;53168;51.146;17.120;2023-11-21T15:32:24;28.88;;;26.63;;
66371;SDS011;53168;51.146;17.120;2023-11-21T15:35:13;29.84;;;27.22;;
66371;SDS011;53168;51.146;17.120;2023-11-21T15:38:31;20.31;;;19.20;;
66371;SDS011;53168;51.146;17.120;2023-11-21T15:41:17;16.98;;;16.32;;
66371;SDS011;53168;51.146;17.120;2023-11-21T15:44:54;16.34;;;15.94;;
66371;SDS011;53168;51.146;17.120;2023-11-21T15:48:10;16.95;;;16.42;;
66371;SDS011;53168;51.146;17.120;2023-11-21T16:06:19;18.03;;;17.24;;
66371;SDS011;53168;51.146;17.120;2023-11-21T16:20:51;16.10;;;15.75;;
66371;SDS011;53168;51.146;17.120;2023-11-21T16:23:34;17.64;;;17.19;;
66371;SDS011;53168;51.146;17.120;2023-11-21T16:26:11;17.75;;;17.44;;
66371;SDS011;53168;51.146;17.120;2023-11-21T16:29:01;15.80;;;15.51;;
66371;SDS011;53168;51.146;17.120;2023-11-21T16:31:36;17.44;;;16.97;;
66371;SDS011;53168;51.146;17.120;2023-11-21T16:34:12;16.86;;;16.50;;
66371;SDS011;53168;51.146;17.120;2023-11-21T16:36:52;19.93;;;19.48;;
66371;SDS011;53168;51.146;17.120;2023-11-21T16:39:27;19.22;;;18.76;;
66371;SDS011;53168;51.146;17.120;2023-11-21T16:42:01;19.91;;;19.49;;
66371;SDS011;53168;51.146;17.120;2023-11-21T16:44:38;19.09;;;18.63;;
66371;SDS011;53168;51.146;17.120;2023-11-21T16:56:52;19.79;;;19.31;;
66371;SDS011;53168;51.146;17.120;2023-11-21T17:03:18;20.85;;;20.44;;
66371;SDS011;53168;51.146;17.120;2023-11-21T17:05:56;19.79;;;19.33;;
66371;SDS011;53168;51.146;17.120;2023-11-21T17:08:34;19.53;;;19.28;;
66371;SDS011;53168;51.146;17.120;2023-11-21T17:12:17;20.75;;;20.46;;
66371;SDS011;53168;51.146;17.120;2023-11-21T17:15:04;21.80;;;21.39;;
66371;SDS011;53168;51.146;17.120;2023-11-21T17:18:21;22.40;;;22.09;;
66371;SDS011;53168;51.146;17.120;2023-11-21T17:21:27;22.23;;;21.58;;
66371;SDS011;53168;51.146;17.120;2023-11-21T17:24:04;21.93;;;21.29;;
66371;SDS011;53168;51.146;17.120;2023-11-21T17:26:43;22.65;;;21.93;;
66371;SDS011;53168;51.146;17.120;2023-11-21T17:29:20;23.68;;;22.60;;
66371;SDS011;53168;51.146;17.120;2023-11-21T17:31:56;24.09;;;23.10;;
66371;SDS011;53168;51.146;17.120;2023-11-21T17:41:13;23.05;;;22.44;;
66371;SDS011;53168;51.146;17.120;2023-11-21T17:53:05;27.72;;;26.46;;
66371;SDS011;53168;51.146;17.120;2023-11-21T17:59:14;26.43;;;25.62;;
66371;SDS011;53168;51.146;17.120;2023-11-21T18:13:08;27.83;;;26.97;;
66371;SDS011;53168;51.146;17.120;2023-11-21T18:20:13;28.31;;;27.36;;
66371;SDS011;53168;51.146;17.120;2023-11-21T18:33:57;29.20;;;28.18;;
66371;SDS011;53168;51.146;17.120;2023-11-21T18:36:50;28.34;;;27.60;;
66371;SDS011;53168;51.146;17.120;2023-11-21T18:40:01;27.07;;;26.57;;
66371;SDS011;53168;51.146;17.120;2023-11-21T18:42:50;31.08;;;29.62;;
66371;SDS011;53168;51.146;17.120;2023-11-21T18:45:51;31.01;;;29.59;;
66371;SDS011;53168;51.146;17.120;2023-11-21T18:51:40;32.69;;;31.43;;
66371;SDS011;53168;51.146;17.120;2023-11-21T18:54:17;33.20;;;32.07;;
66371;SDS011;53168;51.146;17.120;2023-11-21T18:56:47;34.37;;;32.81;;
66371;SDS011;53168;51.146;17.120;2023-11-21T18:59:17;34.26;;;33.05;;
66371;SDS011;53168;51.146;17.120;2023-11-21T19:01:48;34.78;;;33.72;;
66371;SDS011;53168;51.146;17.120;2023-11-21T19:04:18;35.58;;;34.10;;
66371;SDS011;53168;51.146;17.120;2023-11-21T19:06:52;37.16;;;35.60;;
66371;SDS011;53168;51.146;17.120;2023-11-21T19:09:33;37.08;;;35.54;;
66371;SDS011;53168;51.146;17.120;2023-11-21T19:15:05;38.33;;;36.72;;
66371;SDS011;53168;51.146;17.120;2023-11-21T19:20:41;37.89;;;36.17;;
66371;SDS011;53168;51.146;17.120;2023-11-21T19:23:13;37.48;;;35.91;;
66371;SDS011;53168;51.146;17.120;2023-11-21T19:25:45;36.87;;;35.17;;
66371;SDS011;53168;51.146;17.120;2023-11-21T19:28:17;37.07;;;35.42;;
66371;SDS011;53168;51.146;17.120;2023-11-21T19:30:50;38.87;;;37.11;;
66371;SDS011;53168;51.146;17.120;2023-11-21T19:33:24;38.63;;;36.99;;
66371;SDS011;53168;51.146;17.120;2023-11-21T19:35:56;39.04;;;37.43;;
66371;SDS011;53168;51.146;17.120;2023-11-21T19:41:27;38.09;;;36.11;;
66371;SDS011;53168;51.146;17.120;2023-11-21T19:43:58;39.14;;;36.84;;
66371;SDS011;53168;51.146;17.120;2023-11-21T19:47:13;34.88;;;32.99;;
66371;SDS011;53168;51.146;17.120;2023-11-21T19:50:02;34.37;;;33.33;;
66371;SDS011;53168;51.146;17.120;2023-11-21T20:41:17;33.14;;;31.80;;
66371;SDS011;53168;51.146;17.120;2023-11-21T20:43:52;32.44;;;31.21;;
66371;SDS011;53168;51.146;17.120;2023-11-21T20:46:28;33.88;;;32.05;;
66371;SDS011;53168;51.146;17.120;2023-11-21T20:49:02;34.82;;;32.86;;
66371;SDS011;53168;51.146;17.120;2023-11-21T20:51:37;36.17;;;34.42;;
66371;SDS011;53168;51.146;17.120;2023-11-21T20:54:14;32.16;;;30.79;;
66371;SDS011;53168;51.146;17.120;2023-11-21T20:56:48;31.79;;;30.59;;
66371;SDS011;53168;51.146;17.120;2023-11-21T20:59:22;32.54;;;31.17;;